createdAt,value
2023-06-10T00:02:24.426Z,53.13
2023-06-10T00:04:51.663Z,52.96
2023-06-10T00:07:18.987Z,52.97
2023-06-10T00:09:46.174Z,53.40
2023-06-10T00:12:13.158Z,53.18
2023-06-10T00:14:43.670Z,53.15
2023-06-10T00:17:11.008Z,53.45
2023-06-10T00:19:42.549Z,53.27
2023-06-10T00:22:11.715Z,53.09
2023-06-10T00:24:40.201Z,53.16
2023-06-10T00:27:08.138Z,53.18
2023-06-10T00:29:36.415Z,53.21
2023-06-10T00:32:04.431Z,53.42
2023-06-10T00:34:31.545Z,53.14
2023-06-10T00:36:59.513Z,53.48
2023-06-10T00:39:26.900Z,53.41
2023-06-10T00:41:53.942Z,53.29
2023-06-10T00:44:21.154Z,53.10
2023-06-10T00:46:48.443Z,53.51
2023-06-10T00:49:17.873Z,53.33
2023-06-10T00:51:45.272Z,53.48
2023-06-10T00:54:14.735Z,53.35
2023-06-10T00:56:44.232Z,53.40
2023-06-10T00:59:11.349Z,53.75
2023-06-10T01:01:39.246Z,53.20
2023-06-10T01:04:06.897Z,53.04
2023-06-10T01:06:48.537Z,53.63
2023-06-10T01:09:53.861Z,53.39
2023-06-10T01:12:38.434Z,53.21
2023-06-10T01:15:06.718Z,53.55
2023-06-10T01:17:33.985Z,53.09
2023-06-10T01:20:12.918Z,53.45
2023-06-10T01:22:40.174Z,53.61
2023-06-10T01:25:09.074Z,53.34
2023-06-10T01:27:40.980Z,53.37
2023-06-10T01:30:19.563Z,53.40
2023-06-10T01:32:51.484Z,53.60
2023-06-10T01:35:20.066Z,53.45
2023-06-10T01:37:49.149Z,53.49
2023-06-10T01:40:17.769Z,53.48
2023-06-10T01:42:44.898Z,53.37
2023-06-10T01:45:13.588Z,53.50
2023-06-10T01:47:40.993Z,53.48
2023-06-10T01:50:09.033Z,53.59
2023-06-10T01:52:36.249Z,53.74
2023-06-10T01:55:03.838Z,53.55
2023-06-10T01:57:31.109Z,53.50
2023-06-10T01:59:58.363Z,53.82
2023-06-10T02:02:26.204Z,53.64
2023-06-10T02:04:53.551Z,53.52
2023-06-10T02:07:22.040Z,53.56
2023-06-10T02:09:49.717Z,53.89
2023-06-10T02:12:18.197Z,53.68
2023-06-10T02:14:45.711Z,53.79
2023-06-10T02:17:13.888Z,53.88
2023-06-10T02:19:53.775Z,53.86
2023-06-10T02:22:23.522Z,53.73
2023-06-10T02:24:50.825Z,53.55
2023-06-10T02:27:19.204Z,54.01
2023-06-10T02:29:46.450Z,53.88
2023-06-10T02:32:13.815Z,53.74
2023-06-10T02:34:44.000Z,53.55
2023-06-10T02:37:11.801Z,53.83
2023-06-10T02:39:39.866Z,53.95
2023-06-10T02:42:11.864Z,53.79
2023-06-10T02:44:39.580Z,53.73
2023-06-10T02:47:09.086Z,53.91
2023-06-10T02:49:38.118Z,54.04
2023-06-10T02:52:05.665Z,53.77
2023-06-10T02:54:32.872Z,54.00
2023-06-10T02:57:00.157Z,54.03
2023-06-10T02:59:29.750Z,53.88
2023-06-10T03:01:56.926Z,53.98
2023-06-10T03:04:26.819Z,54.21
2023-06-10T03:07:04.781Z,54.02
2023-06-10T03:09:35.394Z,53.87
2023-06-10T03:12:04.877Z,54.00
2023-06-10T03:14:36.896Z,54.11
2023-06-10T03:17:05.896Z,53.71
2023-06-10T03:19:34.608Z,54.02
2023-06-10T03:22:15.893Z,54.09
2023-06-10T03:24:54.588Z,54.04
2023-06-10T03:27:22.087Z,54.02
2023-06-10T03:29:53.052Z,54.15
2023-06-10T03:32:20.783Z,53.98
2023-06-10T03:34:48.925Z,54.11
2023-06-10T03:37:16.329Z,53.87
2023-06-10T03:39:45.448Z,54.12
2023-06-10T03:42:12.667Z,54.04
2023-06-10T03:44:39.790Z,54.16
2023-06-10T03:47:07.000Z,53.81
2023-06-10T03:49:34.305Z,53.92
2023-06-10T03:52:03.195Z,53.85
2023-06-10T03:54:30.887Z,53.93
2023-06-10T03:56:57.928Z,54.08
2023-06-10T03:59:25.026Z,54.17
2023-06-10T04:01:52.390Z,53.97
2023-06-10T04:04:19.494Z,53.99
2023-06-10T04:06:48.492Z,54.01
2023-06-10T04:09:16.784Z,53.87
2023-06-10T04:11:44.736Z,53.93
2023-06-10T04:14:11.789Z,53.96
2023-06-10T04:16:43.716Z,53.80
2023-06-10T04:19:11.845Z,53.90
2023-06-10T04:21:39.328Z,53.82
2023-06-10T04:24:06.492Z,53.83
2023-06-10T04:26:36.632Z,54.03
2023-06-10T04:29:04.168Z,53.80
2023-06-10T04:31:33.279Z,54.15
2023-06-10T04:34:01.844Z,53.79
2023-06-10T04:36:30.545Z,54.02
2023-06-10T04:38:57.855Z,54.02
2023-06-10T04:41:26.525Z,53.90
2023-06-10T04:43:54.693Z,53.86
2023-06-10T04:46:22.086Z,54.10
2023-06-10T04:48:49.431Z,54.01
2023-06-10T04:51:16.496Z,53.91
2023-06-10T04:53:43.852Z,53.98
2023-06-10T04:56:10.822Z,54.13
2023-06-10T04:58:37.868Z,53.76
2023-06-10T05:01:05.183Z,53.99
2023-06-10T05:03:32.413Z,54.34
2023-06-10T05:05:59.551Z,54.23
2023-06-10T05:08:26.610Z,54.06
2023-06-10T05:10:53.883Z,54.39
2023-06-10T05:13:20.969Z,54.43
2023-06-10T05:15:48.166Z,53.95
2023-06-10T05:18:15.277Z,54.40
2023-06-10T05:20:42.516Z,54.22
2023-06-10T05:23:09.753Z,54.25
2023-06-10T05:25:37.166Z,54.31
2023-06-10T05:28:05.531Z,54.32
2023-06-10T05:30:32.763Z,54.01
2023-06-10T05:32:59.917Z,54.23
2023-06-10T05:35:27.048Z,54.37
2023-06-10T05:37:53.998Z,54.33
2023-06-10T05:40:21.165Z,54.31
2023-06-10T05:42:48.240Z,54.11
2023-06-10T05:45:15.386Z,54.18
2023-06-10T05:47:42.858Z,54.43
2023-06-10T05:50:10.998Z,54.27
2023-06-10T05:52:38.426Z,54.47
2023-06-10T05:55:06.168Z,54.31
2023-06-10T05:57:33.345Z,54.24
2023-06-10T06:00:00.413Z,54.39
2023-06-10T06:02:27.668Z,54.25
2023-06-10T06:04:54.948Z,54.27
2023-06-10T06:07:22.173Z,54.58
2023-06-10T06:09:49.185Z,54.33
2023-06-10T06:12:16.230Z,54.55
2023-06-10T06:14:43.284Z,54.20
2023-06-10T06:17:10.261Z,54.25
2023-06-10T06:19:37.474Z,54.33
2023-06-10T06:22:04.900Z,54.35
2023-06-10T06:24:31.967Z,54.25
2023-06-10T06:26:58.990Z,54.54
2023-06-10T06:29:26.045Z,54.46
2023-06-10T06:31:53.858Z,54.38
2023-06-10T06:34:21.162Z,54.36
2023-06-10T06:36:48.087Z,54.40
2023-06-10T06:39:15.778Z,54.52
2023-06-10T06:41:43.679Z,54.39
2023-06-10T06:44:10.937Z,54.44
2023-06-10T06:46:39.422Z,54.35
2023-06-10T06:49:06.479Z,54.26
2023-06-10T06:51:33.495Z,54.45
2023-06-10T06:54:00.517Z,54.36
2023-06-10T06:56:29.131Z,54.70
2023-06-10T06:58:57.988Z,54.29
2023-06-10T07:01:25.796Z,54.30
2023-06-10T07:03:52.972Z,54.21
2023-06-10T07:06:20.008Z,54.48
2023-06-10T07:08:47.191Z,54.60
2023-06-10T07:11:15.156Z,54.36
2023-06-10T07:13:42.962Z,54.39
2023-06-10T07:16:10.196Z,54.30
2023-06-10T07:18:37.751Z,54.44
2023-06-10T07:21:04.749Z,54.27
2023-06-10T07:23:31.965Z,54.33
2023-06-10T07:25:58.949Z,54.18
2023-06-10T07:28:26.760Z,54.15
2023-06-10T07:30:53.798Z,53.91
2023-06-10T07:33:20.778Z,54.34
2023-06-10T07:35:48.422Z,54.08
2023-06-10T07:38:15.599Z,54.03
2023-06-10T07:40:42.701Z,54.09
2023-06-10T07:43:09.714Z,53.99
2023-06-10T07:45:36.686Z,54.20
2023-06-10T07:48:03.956Z,54.09
2023-06-10T07:50:30.948Z,53.92
2023-06-10T07:52:58.051Z,54.05
2023-06-10T07:55:27.392Z,54.11
2023-06-10T07:57:55.568Z,54.14
2023-06-10T08:00:22.833Z,54.08
2023-06-10T08:02:49.962Z,53.87
2023-06-10T08:05:17.682Z,53.79
2023-06-10T08:07:45.672Z,53.73
2023-06-10T08:10:12.923Z,54.07
2023-06-10T08:12:39.952Z,54.15
2023-06-10T08:15:08.042Z,54.04
2023-06-10T08:17:35.769Z,54.14
2023-06-10T08:20:03.103Z,53.96
2023-06-10T08:22:30.846Z,53.90
2023-06-10T08:24:58.048Z,54.12
2023-06-10T08:27:25.093Z,54.28
2023-06-10T08:29:52.456Z,53.95
2023-06-10T08:32:19.423Z,53.97
2023-06-10T08:34:46.918Z,54.08
2023-06-10T08:37:13.996Z,54.22
2023-06-10T08:39:41.020Z,54.05
2023-06-10T08:42:34.786Z,53.70
2023-06-10T08:45:05.802Z,53.91
2023-06-10T08:47:37.541Z,53.83
2023-06-10T08:50:06.313Z,53.82
2023-06-10T08:52:38.777Z,53.82
2023-06-10T08:55:28.983Z,53.89
2023-06-10T08:57:58.660Z,53.71
2023-06-10T09:00:27.693Z,53.97
2023-06-10T09:02:55.543Z,54.03
2023-06-10T09:05:23.227Z,53.74
2023-06-10T09:07:52.812Z,54.08
2023-06-10T09:10:20.107Z,53.88
2023-06-10T09:12:47.331Z,53.96
2023-06-10T09:15:15.755Z,54.19
2023-06-10T09:17:42.974Z,54.04
2023-06-10T09:20:11.189Z,54.20
2023-06-10T09:45:14.370Z,56.67
2023-06-10T09:47:41.805Z,56.07
2023-06-10T09:50:11.160Z,55.83
2023-06-10T09:52:40.546Z,55.58
2023-06-10T09:55:11.298Z,55.00
2023-06-10T09:57:38.474Z,54.96
2023-06-10T10:00:09.143Z,54.80
2023-06-10T10:02:52.421Z,54.75
2023-06-10T10:05:22.622Z,54.68
2023-06-10T10:07:51.207Z,54.78
2023-06-10T10:10:21.286Z,54.58
2023-06-10T10:12:51.681Z,54.50
2023-06-10T10:15:19.539Z,54.32
2023-06-10T10:17:54.123Z,54.35
2023-06-10T10:20:31.053Z,54.20
2023-06-10T10:22:59.166Z,54.30
2023-06-10T10:25:39.342Z,54.23
2023-06-10T10:28:11.538Z,54.25
2023-06-10T10:30:54.749Z,54.28
2023-06-10T10:33:32.930Z,54.35
2023-06-10T10:36:00.880Z,54.24
2023-06-10T10:38:29.472Z,54.13
2023-06-10T10:41:00.848Z,54.30
2023-06-10T10:43:29.928Z,54.19
2023-06-10T10:46:09.862Z,54.27
2023-06-10T10:48:42.114Z,54.31
2023-06-10T10:51:10.523Z,54.28
2023-06-10T10:53:40.868Z,54.54
2023-06-10T10:56:14.754Z,54.50
2023-06-10T10:58:42.727Z,54.66
2023-06-10T11:01:16.302Z,54.51
2023-06-10T11:03:48.506Z,54.74
2023-06-10T11:06:18.876Z,54.58
2023-06-10T11:08:47.625Z,54.76
2023-06-10T11:23:47.626Z,54.15
2023-06-10T11:26:33.043Z,54.30
2023-06-10T11:29:00.053Z,54.21
2023-06-10T11:31:33.418Z,53.67
2023-06-10T11:34:06.392Z,53.83
2023-06-10T11:36:41.488Z,53.73
2023-06-10T11:39:09.185Z,53.80
2023-06-10T11:41:38.714Z,53.90
2023-06-10T11:44:17.237Z,53.81
2023-06-10T11:46:46.911Z,54.06
2023-06-10T11:49:15.679Z,53.94
2023-06-10T11:51:49.949Z,54.12
2023-06-10T11:54:17.253Z,54.11
2023-06-10T11:56:44.730Z,54.19
2023-06-10T11:59:11.772Z,54.26
2023-06-10T12:01:45.499Z,54.24
2023-06-10T12:04:19.059Z,54.43
2023-06-10T12:06:48.675Z,54.50
2023-06-10T12:09:25.121Z,54.54
2023-06-10T12:11:59.142Z,54.34
2023-06-10T12:14:59.206Z,54.76
2023-06-10T12:17:35.929Z,54.52
2023-06-10T12:20:06.564Z,54.76
2023-06-10T12:22:44.655Z,55.03
2023-06-10T12:25:13.344Z,55.03
2023-06-10T12:27:53.130Z,55.03
2023-06-10T12:30:27.376Z,54.94
2023-06-10T12:32:56.207Z,54.97
2023-06-10T12:35:26.237Z,54.95
2023-06-10T12:38:13.172Z,54.83
2023-06-10T12:40:42.019Z,54.91
2023-06-10T12:43:09.332Z,54.92
2023-06-10T12:45:40.712Z,55.04
2023-06-10T12:48:23.490Z,55.20
2023-06-10T12:50:59.099Z,54.95
2023-06-10T12:53:29.646Z,55.30
2023-06-10T12:55:57.449Z,55.23
2023-06-10T12:58:25.243Z,55.34
2023-06-10T13:00:55.519Z,55.51
2023-06-10T13:03:22.827Z,55.46
2023-06-10T13:05:50.069Z,55.61
2023-06-10T13:08:17.482Z,55.46
2023-06-10T13:10:44.820Z,55.65
2023-06-10T13:13:11.835Z,55.42
2023-06-10T13:15:43.083Z,55.47
2023-06-10T13:18:10.991Z,55.28
2023-06-10T13:20:38.095Z,55.17
2023-06-10T13:23:05.093Z,55.10
2023-06-10T13:25:32.233Z,54.92
2023-06-10T13:27:59.404Z,54.89
2023-06-10T13:30:27.558Z,54.88
2023-06-10T13:32:54.929Z,54.93
2023-06-10T13:35:22.135Z,54.67
2023-06-10T13:37:49.442Z,54.67
2023-06-10T13:40:16.713Z,54.54
2023-06-10T13:42:44.188Z,54.65
2023-06-10T13:45:12.060Z,54.52
2023-06-10T13:47:39.718Z,54.77
2023-06-10T13:50:08.283Z,54.52
2023-06-10T13:52:35.200Z,54.45
2023-06-10T13:55:02.359Z,54.41
2023-06-10T13:57:29.557Z,54.58
2023-06-10T13:59:57.426Z,54.44
2023-06-10T14:02:25.044Z,54.54
2023-06-10T14:04:52.410Z,54.48
2023-06-10T14:07:19.398Z,54.48
2023-06-10T14:09:46.455Z,54.63
2023-06-10T14:12:13.703Z,54.74
2023-06-10T14:14:41.021Z,54.44
2023-06-10T14:17:08.297Z,54.59
2023-06-10T14:19:35.541Z,54.36
2023-06-10T14:22:02.774Z,54.72
2023-06-10T14:24:30.684Z,54.61
2023-06-10T14:26:59.383Z,54.15
2023-06-10T14:29:29.838Z,54.73
2023-06-10T14:31:57.191Z,54.48
2023-06-10T14:34:29.679Z,54.71
2023-06-10T14:36:57.005Z,54.71
2023-06-10T14:39:23.934Z,54.64
2023-06-10T14:41:50.960Z,54.85
2023-06-10T14:44:17.947Z,54.89
2023-06-10T14:46:45.054Z,54.81
2023-06-10T14:49:12.103Z,54.75
2023-06-10T14:51:39.303Z,54.71
2023-06-10T14:54:06.616Z,54.80
2023-06-10T14:56:33.613Z,54.99
2023-06-10T14:59:00.650Z,54.57
2023-06-10T15:01:27.766Z,54.69
2023-06-10T15:03:55.201Z,54.86
2023-06-10T15:06:23.847Z,54.68
2023-06-10T15:08:50.985Z,54.75
2023-06-10T15:11:18.138Z,54.96
2023-06-10T15:13:45.644Z,54.84
2023-06-10T15:16:12.710Z,54.74
2023-06-10T15:18:39.741Z,54.96
2023-06-10T15:21:06.926Z,54.94
2023-06-10T15:23:34.135Z,54.93
2023-06-10T15:26:01.198Z,54.90
2023-06-10T15:28:28.729Z,54.89
2023-06-10T15:30:56.241Z,54.96
2023-06-10T15:33:23.321Z,54.81
2023-06-10T15:35:50.644Z,54.76
2023-06-10T15:38:17.835Z,54.94
2023-06-10T15:40:44.925Z,55.25
2023-06-10T15:43:12.257Z,54.89
2023-06-10T15:45:39.379Z,54.82
2023-06-10T15:48:06.775Z,54.80
2023-06-10T15:50:33.876Z,54.80
2023-06-10T15:53:01.071Z,54.89
2023-06-10T15:55:30.222Z,54.80
2023-06-10T15:58:01.558Z,54.86
2023-06-10T16:00:28.908Z,54.81
2023-06-10T16:02:56.099Z,54.82
2023-06-10T16:05:23.318Z,54.86
2023-06-10T16:07:50.504Z,54.89
2023-06-10T16:10:17.767Z,54.78
2023-06-10T16:12:45.059Z,54.53
2023-06-10T16:15:12.786Z,54.64
2023-06-10T16:17:41.401Z,54.79
2023-06-10T16:20:09.272Z,54.78
2023-06-10T16:22:36.735Z,54.60
2023-06-10T16:25:04.291Z,54.66
2023-06-10T16:27:31.329Z,54.70
2023-06-10T16:29:58.716Z,54.75
2023-06-10T16:32:25.715Z,54.70
2023-06-10T16:34:52.974Z,54.50
2023-06-10T16:37:19.990Z,54.80
2023-06-10T16:39:47.019Z,55.01
2023-06-10T16:42:14.066Z,54.83
2023-06-10T16:44:41.026Z,54.46
2023-06-10T16:47:08.226Z,54.62
2023-06-10T16:49:37.268Z,54.88
2023-06-10T16:52:05.718Z,54.75
2023-06-10T16:54:32.753Z,54.80
2023-06-10T16:56:59.941Z,54.96
2023-06-10T16:59:26.930Z,54.80
2023-06-10T17:01:54.069Z,54.89
2023-06-10T17:04:21.096Z,55.02
2023-06-10T17:06:48.193Z,55.26
2023-06-10T17:09:15.439Z,55.13
2023-06-10T17:11:42.452Z,55.13
2023-06-10T17:14:09.872Z,55.01
2023-06-10T17:16:37.460Z,54.88
2023-06-10T17:19:04.833Z,54.67
2023-06-10T17:21:32.157Z,54.92
2023-06-10T17:23:59.619Z,54.79
2023-06-10T17:26:28.097Z,54.67
2023-06-10T17:28:55.539Z,54.61
2023-06-10T17:31:22.927Z,54.74
2023-06-10T17:33:50.083Z,54.55
2023-06-10T17:36:17.178Z,54.77
2023-06-10T17:38:44.769Z,54.77
2023-06-10T17:41:11.996Z,54.69
2023-06-10T17:43:39.004Z,54.61
2023-06-10T17:46:07.744Z,54.60
2023-06-10T17:48:35.237Z,54.61
2023-06-10T17:51:02.278Z,54.63
2023-06-10T17:53:29.838Z,54.27
2023-06-10T17:55:58.001Z,54.11
2023-06-10T17:58:27.077Z,53.82
2023-06-10T18:00:54.781Z,53.97
2023-06-10T18:03:27.410Z,54.11
2023-06-10T18:05:56.149Z,54.13
2023-06-10T18:08:23.766Z,54.12
2023-06-10T18:10:51.194Z,54.08
2023-06-10T18:13:18.154Z,54.28
2023-06-10T18:15:45.316Z,54.26
2023-06-10T18:18:12.376Z,54.08
2023-06-10T18:20:39.546Z,54.12
2023-06-10T18:23:06.923Z,54.07
2023-06-10T18:25:33.940Z,54.06
2023-06-10T18:28:01.180Z,54.11
2023-06-10T18:30:28.774Z,54.29
2023-06-10T18:32:56.047Z,54.06
2023-06-10T18:35:23.111Z,54.22
2023-06-10T18:37:50.145Z,54.22
2023-06-10T18:40:19.106Z,54.06
2023-06-10T18:42:46.330Z,54.30
2023-06-10T18:45:13.596Z,54.49
2023-06-10T18:47:56.324Z,54.47
2023-06-10T18:50:25.042Z,54.53
2023-06-10T18:52:52.180Z,54.31
2023-06-10T18:55:19.309Z,54.07
2023-06-10T18:57:46.356Z,54.41
2023-06-10T19:00:14.503Z,54.25
2023-06-10T19:02:41.777Z,54.35
2023-06-10T19:05:14.174Z,54.36
2023-06-10T19:07:41.276Z,54.29
2023-06-10T19:10:09.004Z,54.28
2023-06-10T19:12:36.075Z,54.23
2023-06-10T19:15:04.739Z,54.34
2023-06-10T19:17:32.063Z,54.36
2023-06-10T19:19:59.033Z,54.36
2023-06-10T19:22:26.348Z,54.36
2023-06-10T19:25:08.317Z,54.28
2023-06-10T19:27:35.855Z,54.16
2023-06-10T19:30:04.852Z,54.33
2023-06-10T19:32:32.162Z,54.23
2023-06-10T19:34:59.443Z,54.23
2023-06-10T19:37:26.710Z,54.27
2023-06-10T19:39:53.761Z,54.24
2023-06-10T19:42:21.158Z,54.21
2023-06-10T19:44:48.337Z,54.22
2023-06-10T19:47:15.548Z,54.07
2023-06-10T19:49:42.870Z,54.10
2023-06-10T19:52:10.021Z,54.08
2023-06-10T19:54:37.344Z,54.08
2023-06-10T19:57:08.726Z,54.16
2023-06-10T19:59:36.681Z,53.80
2023-06-10T20:02:03.968Z,54.02
2023-06-10T20:04:31.344Z,54.23
2023-06-10T20:06:58.603Z,54.25
2023-06-10T20:09:26.036Z,54.09
2023-06-10T20:11:54.442Z,54.13
2023-06-10T20:14:22.323Z,54.04
2023-06-10T20:16:49.494Z,54.13
2023-06-10T20:19:16.857Z,54.24
2023-06-10T20:21:44.087Z,54.34
2023-06-10T20:24:11.245Z,54.38
2023-06-10T20:26:38.304Z,54.07
2023-06-10T20:29:05.855Z,54.15
2023-06-10T20:31:32.917Z,54.04
2023-06-10T20:34:00.340Z,53.92
2023-06-10T20:36:28.996Z,54.17
2023-06-10T20:38:57.335Z,54.01
2023-06-10T20:41:24.505Z,54.14
2023-06-10T20:43:51.901Z,54.21
2023-06-10T20:46:19.039Z,53.79
2023-06-10T20:48:46.221Z,54.11
2023-06-10T20:51:13.287Z,54.15
2023-06-10T20:53:40.851Z,54.01
2023-06-10T20:56:08.880Z,54.05
2023-06-10T20:58:36.607Z,54.10
2023-06-10T21:01:03.742Z,54.04
2023-06-10T21:03:31.125Z,53.65
2023-06-10T21:05:58.132Z,53.92
2023-06-10T21:08:27.702Z,53.77
2023-06-10T21:10:55.626Z,53.85
2023-06-10T21:13:22.717Z,53.85
2023-06-10T21:15:49.967Z,53.91
2023-06-10T21:18:17.498Z,53.99
2023-06-10T21:20:44.761Z,53.99
2023-06-10T21:23:13.967Z,54.00
2023-06-10T21:25:41.746Z,54.15
2023-06-10T21:28:09.055Z,53.77
2023-06-10T21:30:36.392Z,53.69
2023-06-10T21:33:03.995Z,54.15
2023-06-10T21:35:31.151Z,53.81
2023-06-10T21:37:58.105Z,53.72
2023-06-10T21:40:25.546Z,54.00
2023-06-10T21:42:52.681Z,53.61
2023-06-10T21:45:19.941Z,53.92
2023-06-10T21:47:47.148Z,53.83
2023-06-10T21:50:14.300Z,53.86
2023-06-10T21:52:41.397Z,53.69
2023-06-10T21:55:09.390Z,53.85
2023-06-10T21:57:36.833Z,53.83
2023-06-10T22:00:11.982Z,53.89
2023-06-10T22:02:42.750Z,53.75
2023-06-10T22:05:10.214Z,53.92
2023-06-10T22:07:37.605Z,53.71
2023-06-10T22:10:05.218Z,53.88
2023-06-10T22:12:32.243Z,53.75
2023-06-10T22:14:59.282Z,53.75
2023-06-10T22:17:26.584Z,53.61
2023-06-10T22:19:53.712Z,53.66
2023-06-10T22:22:20.994Z,53.64
2023-06-10T22:24:51.345Z,53.60
2023-06-10T22:27:18.505Z,53.67
2023-06-10T22:29:46.006Z,53.70
2023-06-10T22:32:13.220Z,53.49
2023-06-10T22:34:40.385Z,53.63
2023-06-10T22:37:07.538Z,53.50
2023-06-10T22:39:34.570Z,53.60
2023-06-10T22:42:01.606Z,53.55
2023-06-10T22:44:28.642Z,53.70
2023-06-10T22:46:55.882Z,53.50
2023-06-10T22:49:22.957Z,53.64
2023-06-10T22:51:49.995Z,53.56
2023-06-10T22:54:17.027Z,53.54
2023-06-10T22:56:44.473Z,53.63
2023-06-10T22:59:11.819Z,53.52
2023-06-10T23:01:38.903Z,53.78
2023-06-10T23:04:06.239Z,53.11
2023-06-10T23:06:33.266Z,53.46
2023-06-10T23:09:00.365Z,53.66
2023-06-10T23:11:27.710Z,53.44
2023-06-10T23:13:55.407Z,53.55
2023-06-10T23:16:22.447Z,53.53
2023-06-10T23:18:49.455Z,53.49
2023-06-10T23:21:19.954Z,53.22
2023-06-10T23:23:52.519Z,53.29
2023-06-10T23:26:19.892Z,53.44
2023-06-10T23:28:46.946Z,53.57
2023-06-10T23:31:14.026Z,53.44
2023-06-10T23:33:41.648Z,53.39
2023-06-10T23:36:09.150Z,53.24
2023-06-10T23:38:36.912Z,53.62
2023-06-10T23:41:03.997Z,53.17
2023-06-10T23:43:31.094Z,53.45
2023-06-10T23:45:58.200Z,53.40
2023-06-10T23:48:25.445Z,53.16
2023-06-10T23:50:54.450Z,53.15
2023-06-10T23:53:21.624Z,53.14
2023-06-10T23:55:48.648Z,53.27
2023-06-10T23:58:15.888Z,53.48
